Main page


Airports :

Rajkot, India

Rajkot Airport

latitude: 22-18N, longitude: 070-47E, elevation: 134 m

Current weather observation

The report was made 6 hours and 17 minutes ago, at 00:00 UTC
Wind 5 kt from the West
Temperature 22°C
Humidity 94%
Pressure 1012 hPa
Visibility: 5000 m
Few clouds at a height of 1000 ft

METAR: VARK 200000Z 27005KT 5000 HZ FEW010 22/21 Q1012

Time: 11:47 (06:17 UTC)

TAF: missing

Weather observations and forecasts of more than 4000 airports (METAR and TAF reports).

The available stations are represented by yellow and red dots on the map.

Hover mouse over dot to see the name of the station.

Then click to see weather observations and forecasts.

To change the map : click on the green buttons with a black cross to zoom in, on the green button with a dash to zoom out, or on the green arrows for adjacent maps.